Time;durP1;ratioP1;P1;durP2;ratioP2;P2;SDS_P1;SDS_P2;PMS_P1;PMS_P2;Temp;Humidity;BMP_temperature;BMP_pressure;BME280_temperature;BME280_humidity;BME280_pressure;Samples;Min_cycle;Max_cycle;Signal;HPM_P1;HPM_P2
2021/12/07 00:00:24;;;;;;;6.38;2.67;;;2.30;99.90;;;;;;4977820;28;20393;-81
2021/12/07 00:02:50;;;;;;;5.57;2.85;;;2.30;99.90;;;;;;4978526;28;20034;-81
2021/12/07 00:05:16;;;;;;;2.72;2.00;;;2.30;99.90;;;;;;4974527;28;20136;-81
2021/12/07 00:07:43;;;;;;;3.05;2.45;;;2.30;99.90;;;;;;4992453;28;20044;-81
2021/12/07 00:10:10;;;;;;;3.05;2.20;;;2.30;99.90;;;;;;4990825;28;20032;-82
2021/12/07 00:12:39;;;;;;;2.72;2.10;;;2.40;99.90;;;;;;4970281;28;20033;-81
2021/12/07 00:15:05;;;;;;;3.42;2.33;;;2.40;99.90;;;;;;4975004;28;20433;-81
2021/12/07 00:17:30;;;;;;;2.58;2.17;;;2.40;99.90;;;;;;4989121;28;20030;-81
2021/12/07 00:19:56;;;;;;;3.50;2.13;;;2.40;99.90;;;;;;4977361;28;20511;-81
2021/12/07 00:22:22;;;;;;;2.60;1.80;;;2.40;99.90;;;;;;4991654;28;20033;-81
2021/12/07 00:24:48;;;;;;;2.33;1.73;;;2.40;99.90;;;;;;5002188;28;20034;-81
2021/12/07 00:27:13;;;;;;;3.40;2.00;;;2.40;99.90;;;;;;4988179;28;20060;-81
2021/12/07 00:29:39;;;;;;;2.60;1.80;;;2.40;99.90;;;;;;4973647;28;20156;-81
2021/12/07 00:32:21;;;;;;;2.25;2.05;;;2.40;99.90;;;;;;5004085;28;20040;-81
2021/12/07 00:35:22;;;;;;;1.65;0.98;;;2.40;99.90;;;;;;4980543;28;20099;-81
2021/12/07 00:37:52;;;;;;;3.30;2.30;;;2.40;99.90;;;;;;5012286;28;20075;-81
2021/12/07 00:40:18;;;;;;;1.67;1.25;;;2.40;99.90;;;;;;4989967;28;20041;-81
2021/12/07 00:42:45;;;;;;;2.63;1.70;;;2.30;99.90;;;;;;5006293;28;20552;-81
2021/12/07 00:45:12;;;;;;;1.83;1.17;;;2.40;99.90;;;;;;4992346;28;20072;-81
2021/12/07 00:47:37;;;;;;;2.35;1.88;;;2.40;99.90;;;;;;4979833;28;20057;-81
2021/12/07 00:50:05;;;;;;;1.27;1.17;;;2.40;99.90;;;;;;5003408;28;20068;-81
2021/12/07 00:52:30;;;;;;;1.52;1.20;;;2.40;99.90;;;;;;4991415;28;20482;-81
2021/12/07 00:54:56;;;;;;;4.28;2.95;;;2.40;99.90;;;;;;5001686;28;20132;-81
2021/12/07 00:57:21;;;;;;;2.42;2.10;;;2.40;99.90;;;;;;4990446;28;20109;-81
2021/12/07 00:59:47;;;;;;;1.38;0.80;;;2.40;99.90;;;;;;4990611;28;20038;-82
2021/12/07 01:02:12;;;;;;;3.25;2.53;;;2.40;99.90;;;;;;4990571;28;20048;-81
2021/12/07 01:04:38;;;;;;;5.22;1.38;;;2.40;99.90;;;;;;4974482;28;20041;-81
2021/12/07 01:07:07;;;;;;;4.10;2.55;;;2.40;99.90;;;;;;5003192;28;20040;-81
2021/12/07 01:24:38;;;;;;;4.22;2.80;;;2.40;99.90;;;;;;4991569;28;20041;-81
2021/12/07 01:26:07;;;;;;;6.47;4.22;;;2.30;99.90;;;;;;4994795;28;20041;-82
2021/12/07 01:28:38;;;;;;;3.33;2.08;;;2.30;99.90;;;;;;4986336;28;20033;-81
2021/12/07 01:31:23;;;;;;;5.47;3.38;;;2.30;99.90;;;;;;5007479;28;20157;-82
2021/12/07 01:36:46;;;;;;;4.68;3.58;;;2.30;99.90;;;;;;4994777;28;20116;-81
2021/12/07 01:47:58;;;;;;;2.35;1.98;;;2.10;99.90;;;;;;4991734;28;20765;-82
2021/12/07 01:59:32;;;;;;;7.03;3.47;;;2.00;99.90;;;;;;5006716;28;20174;-82
2021/12/07 02:00:55;;;;;;;4.65;2.75;;;1.90;99.90;;;;;;4995412;28;20044;-82
2021/12/07 02:03:21;;;;;;;5.88;3.65;;;1.90;99.90;;;;;;4972986;28;20409;-82
2021/12/07 02:05:46;;;;;;;7.07;4.93;;;1.90;99.90;;;;;;4972589;28;20033;-82
2021/12/07 02:08:12;;;;;;;7.93;5.63;;;1.90;99.90;;;;;;4991859;28;20034;-82
2021/12/07 02:10:37;;;;;;;5.35;3.50;;;1.80;99.90;;;;;;4974225;28;20064;-82
2021/12/07 02:13:07;;;;;;;6.35;4.13;;;1.80;99.90;;;;;;5005658;28;20034;-82
2021/12/07 02:15:33;;;;;;;6.28;4.55;;;1.80;99.90;;;;;;4974913;28;20042;-82
2021/12/07 02:17:58;;;;;;;7.97;5.45;;;1.80;99.90;;;;;;4988334;28;20199;-82
2021/12/07 02:20:26;;;;;;;6.82;4.55;;;1.70;99.90;;;;;;5004705;28;20068;-82
2021/12/07 02:22:51;;;;;;;9.43;5.75;;;1.70;99.90;;;;;;4989434;28;20033;-82
2021/12/07 02:25:17;;;;;;;8.15;6.13;;;1.60;99.90;;;;;;4990576;28;20048;-82
2021/12/07 02:27:43;;;;;;;5.43;3.65;;;1.60;99.90;;;;;;4986266;28;20084;-82
2021/12/07 02:30:10;;;;;;;7.63;5.55;;;1.60;99.90;;;;;;4972115;28;20403;-82
2021/12/07 02:32:36;;;;;;;5.43;3.13;;;1.60;99.90;;;;;;4986460;28;20034;-82
2021/12/07 02:35:01;;;;;;;8.98;6.20;;;1.60;99.90;;;;;;4985441;28;20500;-82
2021/12/07 02:37:29;;;;;;;5.47;3.08;;;1.60;99.90;;;;;;4986591;28;20056;-82
2021/12/07 02:39:55;;;;;;;9.93;7.28;;;1.60;99.90;;;;;;4975136;28;20041;-82
2021/12/07 02:42:21;;;;;;;12.63;8.52;;;1.70;99.90;;;;;;4968470;28;20557;-82
2021/12/07 02:44:46;;;;;;;8.45;2.65;;;1.60;99.90;;;;;;5007840;28;20117;-81
2021/12/07 02:47:12;;;;;;;10.45;7.28;;;1.70;99.90;;;;;;4985386;28;20201;-81
2021/12/07 02:49:37;;;;;;;10.55;6.97;;;1.70;99.90;;;;;;4978362;28;20038;-81
2021/12/07 02:52:04;;;;;;;10.57;6.50;;;1.70;99.90;;;;;;5005349;28;20092;-82
2021/12/07 02:54:31;;;;;;;19.85;10.90;;;1.80;99.90;;;;;;4978712;28;20065;-82
2021/12/07 02:56:57;;;;;;;13.60;7.57;;;1.80;99.90;;;;;;4977738;28;20605;-81
2021/12/07 02:59:24;;;;;;;21.92;10.98;;;1.80;99.90;;;;;;4976641;28;20026;-82
2021/12/07 03:01:59;;;;;;;17.60;9.52;;;1.80;99.90;;;;;;4977783;28;20120;-82
2021/12/07 03:04:31;;;;;;;16.33;9.75;;;1.80;99.90;;;;;;4996090;28;20029;-81
2021/12/07 03:07:16;;;;;;;20.92;12.02;;;1.80;99.90;;;;;;4981755;28;20060;-82
2021/12/07 03:25:48;;;;;;;27.95;13.32;;;1.90;99.90;;;;;;4997815;28;20124;-81
2021/12/07 03:26:25;;;;;;;31.25;15.93;;;2.10;99.90;;;;;;5006230;28;20084;-81
2021/12/07 03:28:52;;;;;;;32.65;16.13;;;2.10;99.90;;;;;;4999239;28;20092;-81
2021/12/07 03:31:18;;;;;;;30.73;16.48;;;2.10;99.90;;;;;;4990777;28;20092;-81
2021/12/07 03:33:44;;;;;;;35.38;18.98;;;2.10;99.90;;;;;;4998139;28;20486;-81
2021/12/07 03:36:10;;;;;;;32.40;16.08;;;2.00;99.90;;;;;;4979136;28;20044;-82
2021/12/07 03:38:35;;;;;;;22.63;13.30;;;2.10;99.90;;;;;;5002569;28;20056;-81
2021/12/07 03:41:01;;;;;;;20.48;12.55;;;2.10;99.90;;;;;;4987860;28;20056;-82
2021/12/07 03:43:27;;;;;;;25.02;13.82;;;2.20;99.90;;;;;;5008024;28;20398;-82
2021/12/07 03:45:52;;;;;;;25.00;15.18;;;2.20;99.90;;;;;;4988226;28;20498;-82
2021/12/07 03:48:18;;;;;;;16.35;9.98;;;2.20;99.90;;;;;;4977563;28;20489;-81
2021/12/07 03:50:43;;;;;;;25.05;14.57;;;2.20;99.90;;;;;;4973342;28;20030;-84
2021/12/07 03:53:09;;;;;;;18.30;9.88;;;2.20;99.90;;;;;;4992468;28;20041;-84
2021/12/07 03:55:35;;;;;;;26.30;15.55;;;2.20;99.90;;;;;;4987969;28;20041;-84
2021/12/07 03:58:00;;;;;;;31.10;14.93;;;2.20;99.90;;;;;;5001240;28;20486;-84
2021/12/07 04:00:27;;;;;;;23.98;13.55;;;2.30;99.90;;;;;;4993022;28;20083;-81
2021/12/07 04:02:53;;;;;;;23.67;11.88;;;2.30;99.90;;;;;;4975631;28;20041;-82
2021/12/07 04:05:20;;;;;;;26.88;13.77;;;2.30;99.90;;;;;;4995072;28;20428;-81
2021/12/07 04:07:46;;;;;;;14.75;7.35;;;2.20;99.90;;;;;;4984533;28;20057;-81
2021/12/07 04:10:14;;;;;;;24.20;13.00;;;2.30;99.90;;;;;;4993218;28;20434;-81
2021/12/07 04:12:39;;;;;;;21.02;12.07;;;2.30;99.90;;;;;;4963718;28;20072;-81
2021/12/07 04:15:06;;;;;;;27.38;14.18;;;2.30;99.90;;;;;;4990427;28;20493;-81
2021/12/07 04:17:31;;;;;;;21.17;12.88;;;2.40;99.90;;;;;;4985679;28;20381;-81
2021/12/07 04:19:57;;;;;;;22.13;10.30;;;2.40;99.90;;;;;;4986671;28;20045;-81
2021/12/07 04:22:22;;;;;;;23.33;12.00;;;2.40;99.90;;;;;;5001524;28;20041;-82
2021/12/07 04:24:48;;;;;;;18.90;9.70;;;2.40;99.90;;;;;;4974860;28;20037;-81
2021/12/07 04:27:13;;;;;;;20.95;9.55;;;2.40;99.90;;;;;;4974541;28;20025;-81
2021/12/07 04:29:39;;;;;;;19.50;11.05;;;2.40;99.90;;;;;;4973761;28;20085;-81
2021/12/07 04:32:05;;;;;;;27.08;12.82;;;2.40;99.90;;;;;;4982352;28;20437;-81
2021/12/07 04:34:31;;;;;;;19.15;7.15;;;2.40;99.90;;;;;;4993324;28;20401;-81
2021/12/07 04:36:56;;;;;;;20.40;10.60;;;2.40;99.90;;;;;;4988801;28;20033;-81
2021/12/07 04:39:22;;;;;;;25.33;10.43;;;2.40;99.90;;;;;;4976185;28;20025;-82
2021/12/07 04:41:49;;;;;;;30.75;12.02;;;2.40;99.90;;;;;;4991144;28;20129;-81
2021/12/07 04:44:14;;;;;;;32.10;14.32;;;2.50;99.90;;;;;;4976525;28;20041;-81
2021/12/07 04:46:59;;;;;;;16.38;9.15;;;2.50;99.90;;;;;;5007903;28;20025;-82
2021/12/07 05:00:26;;;;;;;15.07;7.68;;;2.60;99.90;;;;;;4999540;28;20041;-81
2021/12/07 05:02:58;;;;;;;21.27;10.52;;;2.60;99.90;;;;;;5003742;28;20033;-81
2021/12/07 05:05:28;;;;;;;14.50;7.47;;;2.60;99.90;;;;;;4977731;28;20046;-81
2021/12/07 05:07:56;;;;;;;8.68;4.05;;;2.60;99.90;;;;;;4990588;28;20033;-81
2021/12/07 05:10:36;;;;;;;15.65;8.23;;;2.60;99.90;;;;;;5006901;28;20026;-82
2021/12/07 05:13:25;;;;;;;24.17;7.45;;;2.60;99.90;;;;;;5011059;28;20062;-81
2021/12/07 05:39:43;;;;;;;31.60;10.55;;;2.80;99.90;;;;;;4994113;28;20397;-81
2021/12/07 05:42:09;;;;;;;8.68;4.72;;;2.70;99.90;;;;;;4988320;28;20026;-81
2021/12/07 05:44:34;;;;;;;12.52;6.63;;;2.70;99.90;;;;;;4974896;28;20112;-81
2021/12/07 05:47:00;;;;;;;5.25;3.42;;;2.80;99.90;;;;;;4988531;28;20156;-81
2021/12/07 05:49:25;;;;;;;18.38;7.18;;;2.80;99.90;;;;;;4992603;28;20505;-84
2021/12/07 05:51:51;;;;;;;25.70;10.68;;;2.80;99.90;;;;;;5004289;28;20057;-84
2021/12/07 05:54:16;;;;;;;27.77;11.70;;;2.80;99.90;;;;;;4989963;28;20049;-84
2021/12/07 05:56:42;;;;;;;31.13;11.00;;;2.80;99.90;;;;;;4974306;28;20041;-84
2021/12/07 05:59:07;;;;;;;25.33;9.82;;;2.80;99.90;;;;;;4975347;28;20500;-84
2021/12/07 06:01:33;;;;;;;13.80;7.43;;;2.80;99.90;;;;;;4990243;28;20096;-84
2021/12/07 06:03:58;;;;;;;18.77;8.57;;;2.90;99.90;;;;;;5007861;28;20060;-84
2021/12/07 06:06:24;;;;;;;25.00;10.18;;;2.90;99.90;;;;;;4974587;28;20046;-84
2021/12/07 06:08:50;;;;;;;13.10;5.93;;;2.90;99.90;;;;;;4974115;28;20037;-84
2021/12/07 06:11:15;;;;;;;30.00;11.88;;;2.90;99.90;;;;;;4994682;28;20033;-83
2021/12/07 06:13:41;;;;;;;24.77;12.13;;;2.90;99.90;;;;;;4978068;28;20021;-84
2021/12/07 06:16:08;;;;;;;17.23;8.23;;;2.90;99.90;;;;;;4984342;28;20021;-84
2021/12/07 06:18:34;;;;;;;20.75;8.18;;;3.00;99.90;;;;;;4961523;28;20048;-84
2021/12/07 06:21:00;;;;;;;25.55;10.35;;;3.00;99.90;;;;;;5007678;28;20040;-84
2021/12/07 06:23:25;;;;;;;23.02;9.45;;;3.00;99.90;;;;;;4986680;28;20029;-84
2021/12/07 06:25:51;;;;;;;21.15;7.30;;;3.00;99.90;;;;;;4987533;28;20030;-84
2021/12/07 06:28:17;;;;;;;18.05;6.90;;;3.00;99.90;;;;;;5006839;28;20704;-84
2021/12/07 06:30:43;;;;;;;29.65;11.35;;;3.00;99.90;;;;;;4982293;28;20030;-84
2021/12/07 06:33:08;;;;;;;32.15;12.80;;;3.00;99.90;;;;;;4987449;28;20034;-84
2021/12/07 06:35:34;;;;;;;16.80;7.65;;;3.00;99.90;;;;;;4988296;28;20041;-84
2021/12/07 06:38:00;;;;;;;26.67;9.45;;;3.00;99.90;;;;;;4976047;28;20048;-84
2021/12/07 06:40:25;;;;;;;18.80;7.85;;;3.00;99.90;;;;;;4969403;28;20033;-84
2021/12/07 06:42:51;;;;;;;22.48;10.10;;;3.10;99.90;;;;;;4975362;28;20029;-83
2021/12/07 06:45:17;;;;;;;30.05;13.07;;;3.10;99.90;;;;;;4989229;28;20026;-84
2021/12/07 06:47:42;;;;;;;17.58;7.57;;;3.10;99.90;;;;;;4984953;28;20036;-83
2021/12/07 06:50:09;;;;;;;12.88;6.20;;;3.10;99.90;;;;;;4984839;28;20029;-84
2021/12/07 06:52:35;;;;;;;16.65;8.20;;;3.00;99.90;;;;;;4967552;28;20045;-83
2021/12/07 06:55:00;;;;;;;20.20;9.70;;;3.00;99.90;;;;;;4984793;28;20045;-83
2021/12/07 06:57:26;;;;;;;18.30;9.13;;;3.00;99.90;;;;;;4974933;28;20123;-83
2021/12/07 06:59:52;;;;;;;22.92;8.30;;;3.00;99.90;;;;;;4989946;28;20033;-83
2021/12/07 07:02:17;;;;;;;22.98;10.43;;;3.00;99.90;;;;;;4974179;28;20033;-83
2021/12/07 07:04:44;;;;;;;20.23;8.45;;;3.00;99.90;;;;;;4973873;28;20509;-84
2021/12/07 07:07:10;;;;;;;17.95;8.60;;;3.00;99.90;;;;;;4991782;28;20038;-84
2021/12/07 07:09:35;;;;;;;20.95;7.63;;;3.10;99.90;;;;;;5003536;28;20029;-84
2021/12/07 07:12:01;;;;;;;28.60;9.75;;;3.00;99.90;;;;;;4965430;28;20053;-83
2021/12/07 07:14:26;;;;;;;29.92;8.20;;;3.10;99.90;;;;;;5007186;28;20030;-83
2021/12/07 07:16:52;;;;;;;25.42;7.85;;;3.00;99.90;;;;;;4975178;28;20084;-83
2021/12/07 07:19:17;;;;;;;12.85;5.53;;;3.00;99.90;;;;;;4990705;28;20461;-83
2021/12/07 07:21:43;;;;;;;9.60;3.50;;;3.10;99.90;;;;;;4975383;28;20497;-83
2021/12/07 07:24:09;;;;;;;28.70;11.43;;;3.10;99.90;;;;;;4990936;28;20608;-83
2021/12/07 07:26:34;;;;;;;18.15;6.72;;;3.10;99.90;;;;;;4986417;28;20056;-83
2021/12/07 07:29:00;;;;;;;13.02;6.43;;;3.00;99.90;;;;;;4990369;28;20030;-84
2021/12/07 07:31:25;;;;;;;22.45;6.20;;;3.00;99.90;;;;;;4991032;28;20037;-83
2021/12/07 07:33:53;;;;;;;24.90;7.75;;;3.00;99.90;;;;;;5007274;28;20032;-84
2021/12/07 07:36:19;;;;;;;15.50;5.95;;;3.00;99.90;;;;;;4975059;28;20367;-84
2021/12/07 07:38:44;;;;;;;4.22;2.08;;;2.90;99.90;;;;;;5009230;28;20028;-84
2021/12/07 07:41:10;;;;;;;15.55;7.05;;;2.90;99.90;;;;;;4991782;28;20570;-83
2021/12/07 07:43:35;;;;;;;9.13;4.47;;;2.80;99.90;;;;;;4978439;28;20032;-83
2021/12/07 07:46:01;;;;;;;13.00;4.60;;;2.80;99.90;;;;;;4976201;28;20498;-83
2021/12/07 07:48:27;;;;;;;21.25;8.98;;;2.80;99.90;;;;;;5009292;28;20030;-84
2021/12/07 07:50:52;;;;;;;16.85;5.20;;;2.70;99.90;;;;;;4989508;28;20302;-84
2021/12/07 07:53:18;;;;;;;18.42;8.00;;;2.70;99.90;;;;;;4991686;28;20049;-84
2021/12/07 07:55:44;;;;;;;21.13;7.03;;;2.70;99.90;;;;;;4978714;28;20041;-84
2021/12/07 07:58:10;;;;;;;24.35;9.38;;;2.80;99.90;;;;;;4976444;28;20378;-84
2021/12/07 08:00:36;;;;;;;22.30;8.40;;;2.80;99.90;;;;;;5010307;28;20083;-84
2021/12/07 08:03:03;;;;;;;20.17;7.28;;;2.80;99.90;;;;;;4971261;28;20514;-83
2021/12/07 08:05:28;;;;;;;17.67;7.88;;;2.80;99.90;;;;;;4981931;28;20034;-83
2021/12/07 08:07:54;;;;;;;21.92;10.20;;;2.80;99.90;;;;;;4967574;28;20036;-84
2021/12/07 08:10:21;;;;;;;12.27;5.50;;;2.80;99.90;;;;;;4988321;28;20068;-84
2021/12/07 08:12:50;;;;;;;24.13;10.45;;;2.80;99.90;;;;;;4964383;28;20034;-84
2021/12/07 08:15:17;;;;;;;19.45;8.60;;;2.80;99.90;;;;;;4960279;28;20048;-83
2021/12/07 08:17:43;;;;;;;16.98;6.97;;;2.80;99.90;;;;;;4990563;28;20030;-83
2021/12/07 08:20:09;;;;;;;28.90;10.38;;;2.80;99.90;;;;;;4977838;28;20048;-83
2021/12/07 08:22:34;;;;;;;25.30;9.85;;;2.80;99.90;;;;;;4986089;28;20084;-83
2021/12/07 08:25:00;;;;;;;14.15;6.25;;;2.80;99.90;;;;;;4989039;28;20141;-84
2021/12/07 08:27:26;;;;;;;24.98;10.20;;;2.80;99.90;;;;;;5007691;28;20116;-84
2021/12/07 08:29:51;;;;;;;22.42;8.85;;;2.80;99.90;;;;;;4988055;28;20040;-84
2021/12/07 08:32:17;;;;;;;10.80;5.18;;;2.70;99.90;;;;;;4976978;28;20052;-84
2021/12/07 08:34:43;;;;;;;18.92;8.57;;;2.80;99.90;;;;;;4983102;28;20044;-84
2021/12/07 08:37:08;;;;;;;20.60;8.13;;;2.70;99.90;;;;;;4974009;28;20052;-84
2021/12/07 08:39:34;;;;;;;17.67;9.07;;;2.80;99.90;;;;;;5003901;28;20132;-84
2021/12/07 08:42:03;;;;;;;23.50;9.75;;;2.80;99.90;;;;;;5008755;28;20076;-84
2021/12/07 08:44:29;;;;;;;19.98;7.03;;;2.80;99.90;;;;;;5008413;28;20492;-84
2021/12/07 08:46:54;;;;;;;18.95;9.02;;;2.70;99.90;;;;;;4976254;28;20030;-84
2021/12/07 08:49:21;;;;;;;11.50;4.55;;;2.70;99.90;;;;;;5009782;28;20026;-84
2021/12/07 08:51:47;;;;;;;12.18;6.00;;;2.70;99.90;;;;;;5009355;28;20025;-84
2021/12/07 08:59:41;;;;;;;26.20;10.45;;;2.80;99.90;;;;;;4992833;28;20036;-83
2021/12/07 09:02:07;;;;;;;19.58;9.30;;;2.90;99.90;;;;;;4994741;28;20334;-84
2021/12/07 09:04:32;;;;;;;21.30;5.30;;;2.90;99.90;;;;;;4987159;28;20026;-83
2021/12/07 09:06:58;;;;;;;6.32;3.28;;;3.10;99.90;;;;;;4975114;28;20022;-83
2021/12/07 09:09:23;;;;;;;20.50;8.02;;;3.20;99.90;;;;;;4971179;28;20033;-83
2021/12/07 09:11:49;;;;;;;16.25;7.55;;;3.20;99.90;;;;;;4989567;28;20029;-84
2021/12/07 09:14:18;;;;;;;12.90;6.63;;;3.10;99.90;;;;;;5006455;28;20064;-83
2021/12/07 09:16:43;;;;;;;6.95;3.88;;;3.10;99.90;;;;;;4987469;28;20072;-83
2021/12/07 09:19:09;;;;;;;19.75;7.05;;;3.20;99.90;;;;;;4970898;28;20037;-84
2021/12/07 09:21:35;;;;;;;9.60;4.35;;;3.20;99.90;;;;;;4973805;28;20038;-83
2021/12/07 09:24:00;;;;;;;19.50;6.70;;;3.30;99.90;;;;;;4991050;28;20054;-83
2021/12/07 09:26:26;;;;;;;10.93;3.60;;;3.40;99.90;;;;;;4974249;28;20085;-83
2021/12/07 09:28:53;;;;;;;9.15;4.25;;;3.40;99.90;;;;;;4989418;28;20030;-83
2021/12/07 09:31:18;;;;;;;15.65;6.10;;;3.50;99.90;;;;;;4996500;28;20033;-83
2021/12/07 09:33:44;;;;;;;10.57;3.95;;;3.60;99.90;;;;;;4992327;28;20042;-83
2021/12/07 09:36:11;;;;;;;8.88;3.70;;;3.50;99.90;;;;;;4973105;28;20041;-84
2021/12/07 09:38:37;;;;;;;8.10;3.60;;;3.60;99.90;;;;;;4987640;28;20030;-83
2021/12/07 09:41:04;;;;;;;6.38;3.53;;;3.70;99.90;;;;;;4974802;28;20033;-84
2021/12/07 09:43:29;;;;;;;12.85;3.83;;;3.70;99.90;;;;;;5001579;28;20521;-83
2021/12/07 09:45:55;;;;;;;8.48;3.75;;;3.80;99.90;;;;;;4974482;28;20029;-83
2021/12/07 09:48:20;;;;;;;11.27;4.03;;;3.80;99.90;;;;;;4988836;28;20116;-84
2021/12/07 09:50:47;;;;;;;13.52;4.50;;;3.80;99.90;;;;;;4976536;28;20116;-84
2021/12/07 09:53:16;;;;;;;9.90;3.22;;;3.80;99.90;;;;;;4988630;28;20033;-83
2021/12/07 09:55:41;;;;;;;11.57;3.55;;;3.90;99.90;;;;;;5004830;28;20049;-83
2021/12/07 09:58:07;;;;;;;10.10;3.83;;;3.80;99.90;;;;;;4987821;28;20052;-84
2021/12/07 10:00:33;;;;;;;16.80;4.22;;;3.80;99.90;;;;;;4989426;28;20125;-84
2021/12/07 10:02:58;;;;;;;4.90;2.35;;;3.90;99.90;;;;;;4975280;28;20083;-84
2021/12/07 10:05:25;;;;;;;8.32;2.92;;;3.90;99.90;;;;;;4967431;28;20037;-84
2021/12/07 10:07:51;;;;;;;6.25;2.80;;;3.80;99.90;;;;;;5004046;28;20029;-84
2021/12/07 10:10:22;;;;;;;36.50;5.47;;;3.80;99.90;;;;;;4989618;28;20040;-84
2021/12/07 10:12:48;;;;;;;10.35;3.00;;;3.80;99.90;;;;;;4991720;28;20543;-84
2021/12/07 10:15:13;;;;;;;7.18;2.60;;;3.80;99.90;;;;;;4989714;28;20039;-84
2021/12/07 10:17:40;;;;;;;15.77;3.30;;;3.80;99.90;;;;;;4986615;28;20037;-84
2021/12/07 10:20:31;;;;;;;15.45;3.75;;;3.80;99.90;;;;;;5003849;28;20034;-84
2021/12/07 10:22:59;;;;;;;9.90;3.33;;;3.80;99.90;;;;;;5001367;28;20589;-84
2021/12/07 10:25:27;;;;;;;22.95;5.95;;;3.80;99.90;;;;;;4975825;28;20033;-84
2021/12/07 10:27:52;;;;;;;5.47;2.47;;;3.80;99.90;;;;;;5004639;28;20037;-84
2021/12/07 10:30:21;;;;;;;19.42;4.55;;;3.80;99.90;;;;;;4991567;28;20095;-84
2021/12/07 10:33:03;;;;;;;12.55;4.47;;;3.70;99.90;;;;;;4968889;28;20053;-84
2021/12/07 10:35:31;;;;;;;16.35;4.88;;;3.80;99.90;;;;;;4986179;28;20034;-84
2021/12/07 10:38:09;;;;;;;18.55;4.93;;;3.80;99.90;;;;;;5006972;28;20045;-84
2021/12/07 10:40:35;;;;;;;17.23;4.90;;;3.80;99.90;;;;;;5007785;28;20034;-84
2021/12/07 10:43:00;;;;;;;21.45;5.80;;;3.80;99.90;;;;;;4987792;28;20120;-84
2021/12/07 10:45:27;;;;;;;20.85;5.07;;;3.90;99.90;;;;;;4987023;28;20083;-84
2021/12/07 10:47:53;;;;;;;6.72;2.92;;;3.90;99.90;;;;;;4976299;28;20109;-84
2021/12/07 10:50:19;;;;;;;7.82;3.00;;;4.00;99.90;;;;;;4972598;28;20037;-83
2021/12/07 10:52:45;;;;;;;15.57;3.92;;;4.20;99.90;;;;;;4983691;28;20033;-83
2021/12/07 10:55:20;;;;;;;9.00;4.13;;;4.20;99.90;;;;;;4987942;28;20040;-84
2021/12/07 10:58:00;;;;;;;11.07;4.30;;;4.40;99.90;;;;;;5005546;28;20042;-83
2021/12/07 11:00:28;;;;;;;8.43;3.65;;;4.50;99.90;;;;;;4979898;28;20060;-83
2021/12/07 11:02:56;;;;;;;13.23;4.55;;;4.60;99.90;;;;;;4989085;28;20061;-83
2021/12/07 11:05:28;;;;;;;12.05;4.07;;;4.70;99.90;;;;;;5007820;28;20078;-84
2021/12/07 11:07:54;;;;;;;26.40;4.47;;;4.80;99.90;;;;;;4970556;28;20124;-83
2021/12/07 11:10:28;;;;;;;19.13;5.53;;;5.00;99.90;;;;;;4971547;28;20462;-84
2021/12/07 11:13:09;;;;;;;18.00;5.20;;;5.00;99.90;;;;;;5007534;28;20095;-84
2021/12/07 11:15:37;;;;;;;15.07;3.20;;;5.10;99.90;;;;;;4980931;28;20112;-83
2021/12/07 11:18:08;;;;;;;11.60;4.20;;;5.10;99.90;;;;;;4978128;28;20037;-84
2021/12/07 11:20:34;;;;;;;15.27;3.97;;;5.30;99.90;;;;;;4990507;28;20494;-84
2021/12/07 11:23:01;;;;;;;18.70;5.32;;;5.50;99.90;;;;;;4990970;28;20029;-83
2021/12/07 11:29:39;;;;;;;10.80;4.20;;;5.50;99.90;;;;;;4994599;28;20036;-84
2021/12/07 11:31:46;;;;;;;18.90;5.38;;;5.80;99.90;;;;;;5013900;28;20508;-84
2021/12/07 11:34:18;;;;;;;21.58;5.13;;;5.80;99.90;;;;;;5008599;28;20101;-84
2021/12/07 11:36:52;;;;;;;15.45;4.20;;;6.00;99.90;;;;;;4987634;28;20057;-84
2021/12/07 11:39:25;;;;;;;14.00;4.05;;;6.20;99.90;;;;;;4979380;28;20079;-84
2021/12/07 11:42:03;;;;;;;13.75;4.20;;;6.50;99.90;;;;;;4990369;28;20026;-84
2021/12/07 11:44:32;;;;;;;8.77;3.25;;;6.50;99.90;;;;;;4995326;28;20388;-84
2021/12/07 11:46:59;;;;;;;19.25;5.57;;;6.50;99.90;;;;;;4984757;28;20026;-84
2021/12/07 11:49:27;;;;;;;13.35;4.22;;;6.60;99.90;;;;;;4977263;28;20436;-84
2021/12/07 11:51:56;;;;;;;6.55;1.80;;;6.60;99.90;;;;;;4970086;28;20707;-84
2021/12/07 11:54:26;;;;;;;21.25;4.50;;;6.60;99.90;;;;;;4968814;28;20064;-84
2021/12/07 11:56:53;;;;;;;13.85;3.40;;;6.60;99.90;;;;;;4977256;28;20375;-84
2021/12/07 11:59:18;;;;;;;16.98;4.45;;;6.80;99.90;;;;;;4979274;28;20022;-84
2021/12/07 12:01:45;;;;;;;17.08;3.63;;;6.80;99.90;;;;;;5007967;28;20042;-84
2021/12/07 12:04:10;;;;;;;9.30;2.95;;;7.00;99.90;;;;;;4991133;28;20037;-84
2021/12/07 12:06:36;;;;;;;10.43;2.95;;;7.00;99.90;;;;;;4988734;28;20095;-84
2021/12/07 12:09:02;;;;;;;20.20;4.50;;;7.10;99.90;;;;;;5010598;28;20057;-84
2021/12/07 12:11:35;;;;;;;13.68;4.38;;;7.10;99.90;;;;;;5008173;28;20033;-84
2021/12/07 12:14:35;;;;;;;9.85;2.80;;;7.10;99.90;;;;;;4993513;28;20025;-84
2021/12/07 12:17:12;;;;;;;15.07;3.88;;;7.10;99.90;;;;;;5020547;28;20029;-84
2021/12/07 12:20:15;;;;;;;11.90;4.15;;;7.10;99.90;;;;;;4999147;28;20053;-84
2021/12/07 12:23:02;;;;;;;19.63;4.90;;;7.00;99.90;;;;;;5023643;28;20401;-85
2021/12/07 12:25:28;;;;;;;16.23;4.35;;;6.80;99.90;;;;;;4993805;28;20087;-84
2021/12/07 12:27:56;;;;;;;14.02;4.45;;;6.80;99.90;;;;;;5007528;28;20501;-84
2021/12/07 12:30:32;;;;;;;14.25;3.85;;;6.90;99.90;;;;;;4979553;28;20033;-84
2021/12/07 12:33:00;;;;;;;23.15;4.68;;;6.90;99.90;;;;;;4983821;28;20096;-84
2021/12/07 12:35:40;;;;;;;12.50;4.72;;;6.80;99.90;;;;;;4980182;28;20547;-84
2021/12/07 12:38:21;;;;;;;3.83;2.08;;;6.90;99.90;;;;;;4988502;28;20122;-84
2021/12/07 12:41:14;;;;;;;6.45;2.40;;;7.00;99.90;;;;;;4987184;28;20394;-84
2021/12/07 12:43:41;;;;;;;3.08;1.52;;;7.10;99.90;;;;;;4989720;28;20038;-83
2021/12/07 12:46:07;;;;;;;17.30;4.40;;;7.20;99.90;;;;;;4999183;28;20036;-84
2021/12/07 12:48:33;;;;;;;11.35;2.13;;;7.20;99.90;;;;;;5005815;28;20033;-84
2021/12/07 12:50:58;;;;;;;12.85;2.97;;;7.30;99.90;;;;;;4985302;28;20457;-84
2021/12/07 12:53:34;;;;;;;15.93;3.22;;;7.40;99.90;;;;;;5006124;28;20033;-84
2021/12/07 12:56:07;;;;;;;12.73;3.03;;;7.50;99.90;;;;;;5000069;28;20045;-84
2021/12/07 12:58:35;;;;;;;8.70;2.53;;;7.40;99.90;;;;;;4989848;28;20028;-84
2021/12/07 13:01:29;;;;;;;8.95;2.90;;;7.40;99.90;;;;;;5007515;28;20040;-84
2021/12/07 13:03:58;;;;;;;14.15;3.15;;;7.40;99.90;;;;;;4639310;28;9999947;-84
2021/12/07 13:07:00;;;;;;;14.27;3.47;;;7.40;99.90;;;;;;5023480;28;20048;-84
2021/12/07 13:09:18;;;;;;;13.73;3.50;;;7.40;99.90;;;;;;5022752;28;20055;-84
2021/12/07 13:11:45;;;;;;;13.45;4.63;;;7.50;99.90;;;;;;5003098;28;20091;-84
2021/12/07 13:14:13;;;;;;;14.07;4.00;;;7.50;99.90;;;;;;4991034;28;20034;-84
2021/12/07 13:16:59;;;;;;;24.42;5.40;;;7.50;99.90;;;;;;4985667;28;20033;-84
2021/12/07 13:19:24;;;;;;;11.05;4.85;;;7.50;99.90;;;;;;4951852;28;20041;-84
2021/12/07 13:21:50;;;;;;;15.50;3.67;;;7.50;99.90;;;;;;4991312;28;20068;-84
2021/12/07 13:24:20;;;;;;;11.43;3.17;;;7.50;99.90;;;;;;4990525;28;20472;-84
2021/12/07 13:26:51;;;;;;;11.80;3.22;;;7.60;99.90;;;;;;4988771;28;20034;-84
2021/12/07 13:29:21;;;;;;;8.32;2.22;;;7.50;99.90;;;;;;4980310;28;20026;-84
2021/12/07 13:31:51;;;;;;;7.35;2.58;;;7.40;99.90;;;;;;4969240;28;20141;-84
2021/12/07 13:34:23;;;;;;;8.60;2.78;;;7.40;99.90;;;;;;4982692;28;20598;-84
2021/12/07 13:36:57;;;;;;;15.18;2.70;;;7.30;99.90;;;;;;4978298;28;20571;-84
2021/12/07 13:39:23;;;;;;;11.82;2.72;;;7.40;99.90;;;;;;5000665;28;20022;-84
2021/12/07 13:42:00;;;;;;;6.47;2.17;;;7.40;99.90;;;;;;4997660;28;20494;-84
2021/12/07 13:44:48;;;;;;;10.82;1.95;;;7.20;99.90;;;;;;5004663;28;20034;-84
2021/12/07 13:47:16;;;;;;;7.88;2.65;;;7.10;99.90;;;;;;4980953;28;20478;-83
2021/12/07 13:49:43;;;;;;;10.07;3.22;;;7.00;99.90;;;;;;4974589;28;20744;-83
2021/12/07 13:52:14;;;;;;;9.77;2.70;;;7.00;99.90;;;;;;4986011;28;20543;-84
2021/12/07 13:54:45;;;;;;;6.43;2.30;;;6.80;99.90;;;;;;4989278;28;20033;-84
2021/12/07 13:57:16;;;;;;;7.57;2.05;;;6.90;99.90;;;;;;4967329;28;20037;-83
2021/12/07 13:59:41;;;;;;;6.22;2.17;;;6.80;99.90;;;;;;4981216;28;20030;-84
2021/12/07 14:02:07;;;;;;;9.10;2.90;;;6.80;99.90;;;;;;4985795;28;20030;-84
2021/12/07 14:04:33;;;;;;;9.48;2.08;;;6.70;99.90;;;;;;4992710;28;20490;-84
2021/12/07 14:06:59;;;;;;;6.55;2.00;;;6.70;99.90;;;;;;4973860;28;20109;-84
2021/12/07 14:09:24;;;;;;;10.20;2.40;;;6.60;99.90;;;;;;4978262;28;20077;-84
2021/12/07 14:11:55;;;;;;;8.25;2.25;;;6.60;99.90;;;;;;5007078;28;20037;-84
2021/12/07 14:14:20;;;;;;;13.60;2.85;;;6.50;99.90;;;;;;4985479;28;20069;-83
2021/12/07 14:16:46;;;;;;;6.60;2.28;;;6.40;99.90;;;;;;4973974;28;20129;-83
2021/12/07 14:19:11;;;;;;;10.05;2.35;;;6.30;99.90;;;;;;4972431;28;20177;-84
2021/12/07 14:21:37;;;;;;;9.10;2.08;;;6.30;99.90;;;;;;4974193;28;20037;-84
2021/12/07 14:24:04;;;;;;;6.95;2.70;;;6.20;99.90;;;;;;4989522;28;20036;-84